< < Back
Terminal Aerodrome Forecast


Current Version              Previous Versions:   1  2  3  4  5  6  7  8  9  

Terminal Aerodrome Forecast

677
FTUS44 KBMX 250520
TAFBHM
TAF
KBHM 250520Z 2506/2606 VRB03KT P6SM SCT250
     FM251700 05006KT P6SM SCT250=

Latest METAR

285
SAUS70 KWBC 251600 RRM
MTRBHM
METAR KBHM 251553Z 33003KT 10SM SCT028 30/23 A3021 RMK AO2 SLP222
T03000228


USA.gov is the U.S. government's official web portal to all federal, state and local government web resources and services.